Time;durP1;ratioP1;P1;durP2;ratioP2;P2;SDS_P1;SDS_P2;PMS_P1;PMS_P2;Temp;Humidity;BMP_temperature;BMP_pressure;BME280_temperature;BME280_humidity;BME280_pressure;Samples;Min_cycle;Max_cycle;Signal;HPM_P1;HPM_P2
2022/11/23 00:01:11;;;;;;;;;2.00;2.00;;;;;12.31;75.94;99175.56;4954661;28;45529;-74
2022/11/23 00:03:36;;;;;;;;;1.00;1.00;;;;;12.30;75.63;99178.19;4952540;28;45441;-73
2022/11/23 00:06:02;;;;;;;;;0.00;0.00;;;;;12.11;75.64;99151.97;4953592;28;45480;-75
2022/11/23 00:08:28;;;;;;;;;0.00;0.00;;;;;12.28;75.43;99165.09;4954628;28;45388;-74
2022/11/23 00:10:57;;;;;;;;;0.67;0.00;;;;;12.02;75.30;99104.00;4950949;28;45382;-74
2022/11/23 00:13:23;;;;;;;;;0.00;0.00;;;;;12.29;75.40;99140.63;4954736;28;45424;-74
2022/11/23 00:15:48;;;;;;;;;0.00;0.00;;;;;12.26;75.29;99139.78;4954944;28;45525;-74
2022/11/23 00:18:14;;;;;;;;;0.00;0.00;;;;;12.34;75.73;99143.28;4954544;28;45517;-73
2022/11/23 00:20:40;;;;;;;;;0.00;0.00;;;;;12.36;75.61;99157.25;4954522;28;46500;-75
2022/11/23 00:23:05;;;;;;;;;0.00;0.00;;;;;12.38;75.78;99165.09;4954651;28;45525;-75
2022/11/23 00:25:31;;;;;;;;;0.00;0.00;;;;;12.35;75.45;99150.25;4953474;28;45663;-74
2022/11/23 00:27:56;;;;;;;;;0.00;0.00;;;;;12.35;75.86;99137.16;4954411;28;45514;-73
2022/11/23 00:30:22;;;;;;;;;0.00;0.00;;;;;12.29;75.93;99119.69;4954249;28;45537;-74
2022/11/23 00:32:47;;;;;;;;;0.00;0.00;;;;;12.30;75.69;99110.09;4954690;28;45492;-74
2022/11/23 00:35:13;;;;;;;;;0.00;0.00;;;;;12.13;75.42;99065.59;4952285;28;45259;-74
2022/11/23 00:37:38;;;;;;;;;0.00;0.00;;;;;12.29;75.30;99084.78;4954133;28;45436;-74
2022/11/23 00:40:05;;;;;;;;;0.00;0.00;;;;;12.36;75.00;99067.34;4954140;28;45318;-74
2022/11/23 00:42:30;;;;;;;;;0.00;0.00;;;;;12.39;75.04;99047.22;4954244;28;45279;-74
2022/11/23 00:44:56;;;;;;;;;0.00;0.00;;;;;12.41;74.92;99042.84;4954583;28;45271;-74
2022/11/23 00:47:21;;;;;;;;;0.00;0.00;;;;;11.69;74.79;98910.31;4954265;28;45497;-75
2022/11/23 00:49:47;;;;;;;;;0.00;0.00;;;;;12.38;74.95;99028.94;4954365;28;45417;-75
2022/11/23 00:52:12;;;;;;;;;0.00;0.00;;;;;12.48;74.14;99028.03;4954238;28;45326;-75
2022/11/23 00:54:38;;;;;;;;;0.00;0.00;;;;;12.51;74.04;99030.63;4954691;28;45456;-75
2022/11/23 00:57:03;;;;;;;;;0.00;0.00;;;;;12.52;73.76;99017.53;4955331;28;45443;-74
2022/11/23 00:59:29;;;;;;;;;0.00;0.00;;;;;12.53;73.88;98994.81;4954294;28;45352;-75
2022/11/23 01:01:54;;;;;;;;;0.00;0.00;;;;;12.35;74.16;98956.47;4955618;28;45382;-75
2022/11/23 01:04:20;;;;;;;;;0.00;0.00;;;;;12.20;74.57;98932.97;4954758;28;45289;-76
2022/11/23 01:06:45;;;;;;;;;0.00;0.00;;;;;12.46;74.77;98980.88;4955595;28;45526;-76
2022/11/23 01:09:16;;;;;;;;;0.00;0.00;;;;;12.56;74.71;98973.00;4954386;28;45409;-75
2022/11/23 01:11:43;;;;;;;;;0.00;0.00;;;;;12.50;73.83;98963.41;4955838;28;45414;-76
2022/11/23 01:14:09;;;;;;;;;0.00;0.00;;;;;12.62;73.50;98965.13;4955593;28;45578;-75
2022/11/23 01:16:38;;;;;;;;;0.00;0.00;;;;;12.58;73.59;98940.69;4954932;28;46063;-76
2022/11/23 01:19:07;;;;;;;;;0.00;0.00;;;;;12.74;73.28;98957.22;4955286;28;45483;-74
2022/11/23 01:21:34;;;;;;;;;0.00;0.00;;;;;12.78;73.25;98965.94;4954898;28;45374;-76
2022/11/23 01:24:04;;;;;;;;;0.00;0.00;;;;;12.78;73.51;98929.25;4955681;28;45436;-74
2022/11/23 01:26:29;;;;;;;;;0.00;0.00;;;;;12.72;73.52;98902.19;4955216;28;45586;-74
2022/11/23 01:28:55;;;;;;;;;0.00;0.00;;;;;12.51;72.98;98863.88;4955390;28;45253;-74
2022/11/23 01:31:22;;;;;;;;;0.00;0.00;;;;;12.81;73.01;98929.22;4955453;28;45686;-75
2022/11/23 01:33:53;;;;;;;;;0.00;0.00;;;;;12.89;72.94;98930.03;4955852;28;45315;-75
2022/11/23 01:36:21;;;;;;;;;0.00;0.00;;;;;13.16;72.85;98954.38;4954201;28;46504;-75
2022/11/23 01:38:47;;;;;;;;;0.00;0.00;;;;;13.21;72.79;98940.38;4955247;28;45394;-75
2022/11/23 01:41:34;;;;;;;;;0.00;0.00;;;;;13.35;71.85;98919.31;4955194;28;45275;-76
2022/11/23 01:44:19;;;;;;;;;0.00;0.00;;;;;13.44;72.12;98916.63;4955505;28;45318;-75
2022/11/23 01:46:45;;;;;;;;;0.00;0.00;;;;;13.45;71.36;98900.00;4955109;28;45562;-75
2022/11/23 01:49:11;;;;;;;;;0.00;0.00;;;;;13.59;70.99;98913.00;4954701;28;45466;-75
2022/11/23 01:51:40;;;;;;;;;0.00;0.00;;;;;13.48;71.11;98897.34;4955073;28;45397;-75
2022/11/23 01:54:21;;;;;;;;;0.00;0.00;;;;;13.62;71.51;98914.72;4955345;28;45420;-75
2022/11/23 01:56:51;;;;;;;;;0.00;0.00;;;;;13.42;71.40;98871.16;4954870;28;45417;-75
2022/11/23 01:59:18;;;;;;;;;0.00;0.00;;;;;13.69;71.15;98912.03;4954962;28;45405;-76
2022/11/23 02:01:45;;;;;;;;;0.00;0.00;;;;;13.72;71.26;98912.00;4954977;28;45338;-76
2022/11/23 02:04:33;;;;;;;;;0.00;0.00;;;;;13.76;71.69;98906.72;4955126;28;45476;-75
2022/11/23 02:07:01;;;;;;;;;0.00;0.00;;;;;13.79;71.50;98897.09;4954736;28;45790;-76
2022/11/23 02:09:31;;;;;;;;;0.00;0.00;;;;;13.88;70.97;98911.88;4954666;28;45401;-75
2022/11/23 02:11:57;;;;;;;;;0.00;0.00;;;;;13.88;70.86;98901.38;4954896;28;45426;-75
2022/11/23 02:14:22;;;;;;;;;0.00;0.00;;;;;13.92;71.01;98906.56;4955324;28;45410;-75
2022/11/23 02:16:48;;;;;;;;;0.00;0.00;;;;;13.94;71.21;98917.06;4954715;28;45390;-75
2022/11/23 02:20:01;;;;;;;;;0.00;0.00;;;;;13.98;71.44;98917.91;4954592;28;45487;-75
2022/11/23 02:22:57;;;;;;;;;0.00;0.00;;;;;14.07;71.19;98929.19;4954509;28;45179;-75
2022/11/23 02:25:42;;;;;;;;;0.00;0.00;;;;;14.12;71.30;98932.63;4955148;28;45312;-74
2022/11/23 02:28:09;;;;;;;;;0.00;0.00;;;;;14.06;71.24;98948.44;4954402;28;46251;-74
2022/11/23 02:30:37;;;;;;;;;0.00;0.00;;;;;14.08;71.52;98943.16;4954386;28;45473;-75
2022/11/23 02:33:04;;;;;;;;;0.00;0.00;;;;;14.12;71.22;98931.75;4954930;28;45342;-76
2022/11/23 02:35:31;;;;;;;;;0.00;0.00;;;;;13.87;71.36;98895.25;4957781;28;45542;-76
2022/11/23 02:37:58;;;;;;;;;0.00;0.00;;;;;14.17;71.26;98934.34;4957208;28;45507;-76
2022/11/23 02:40:41;;;;;;;;;0.00;0.00;;;;;14.16;71.63;98933.44;4957650;28;45374;-76
2022/11/23 02:43:07;;;;;;;;;0.00;0.00;;;;;14.13;71.97;98944.88;4957678;28;45503;-76
2022/11/23 02:46:02;;;;;;;;;0.00;0.00;;;;;14.04;72.24;98917.84;4957491;28;45509;-74
2022/11/23 02:48:27;;;;;;;;;0.00;0.00;;;;;14.03;71.96;98916.97;4955986;28;46468;-75
2022/11/23 02:50:53;;;;;;;;;0.00;0.00;;;;;14.17;71.80;98929.09;4957081;28;45460;-76
2022/11/23 02:53:19;;;;;;;;;0.00;0.00;;;;;14.21;72.19;98933.44;4957419;28;45455;-74
2022/11/23 02:55:44;;;;;;;;;0.00;0.00;;;;;14.07;72.45;98918.69;4957619;28;45460;-75
2022/11/23 02:58:10;;;;;;;;;0.00;0.00;;;;;13.82;72.90;98878.66;4957106;28;45488;-75
2022/11/23 03:00:36;;;;;;;;;0.00;0.00;;;;;14.22;72.48;98922.88;4956991;28;45315;-74
2022/11/23 03:03:02;;;;;;;;;0.00;0.00;;;;;14.21;72.59;98926.41;4957305;28;45257;-74
2022/11/23 03:05:28;;;;;;;;;0.00;0.00;;;;;14.23;73.02;98923.78;4957560;28;45504;-75
2022/11/23 03:07:53;;;;;;;;;0.00;0.00;;;;;14.24;72.83;98928.97;4957248;28;45551;-74
2022/11/23 03:10:20;;;;;;;;;0.00;0.00;;;;;14.25;72.64;98932.50;4956852;28;45395;-74
2022/11/23 03:12:46;;;;;;;;;0.00;0.00;;;;;14.18;72.54;98896.69;4957162;28;45474;-74
2022/11/23 03:15:12;;;;;;;;;0.00;0.00;;;;;13.81;73.02;98853.31;4957240;28;45510;-75
2022/11/23 03:17:37;;;;;;;;;0.00;0.00;;;;;14.27;72.45;98907.97;4955449;28;45436;-74
2022/11/23 03:20:03;;;;;;;;;0.00;0.00;;;;;14.28;72.63;98904.47;4956635;28;45323;-75
2022/11/23 03:22:29;;;;;;;;;0.00;0.00;;;;;14.24;72.58;98870.34;4956764;28;45311;-75
2022/11/23 03:24:56;;;;;;;;;0.00;0.00;;;;;14.11;72.82;98865.25;4956632;28;45551;-75
2022/11/23 03:27:22;;;;;;;;;0.00;0.00;;;;;14.16;72.42;98856.44;4956780;28;45252;-75
2022/11/23 03:29:48;;;;;;;;;0.00;0.00;;;;;14.33;72.75;98889.50;4956728;28;45773;-76
2022/11/23 03:32:14;;;;;;;;;0.00;0.00;;;;;14.06;73.30;98832.03;4957165;28;45402;-76
2022/11/23 03:34:39;;;;;;;;;0.00;0.00;;;;;14.31;73.28;98885.16;4957285;28;45297;-75
2022/11/23 03:37:05;;;;;;;;;0.00;0.00;;;;;14.18;73.46;98868.66;4956764;28;45572;-76
2022/11/23 03:39:30;;;;;;;;;0.00;0.00;;;;;14.30;73.67;98880.78;4956669;28;45389;-76
2022/11/23 03:41:56;;;;;;;;;0.00;0.00;;;;;14.25;73.71;98864.22;4957190;28;45484;-75
2022/11/23 03:44:21;;;;;;;;;0.00;0.00;;;;;14.09;73.83;98853.03;4956578;28;45484;-75
2022/11/23 03:46:49;;;;;;;;;0.00;0.00;;;;;13.98;74.19;98839.13;4956596;28;46196;-75
2022/11/23 03:49:15;;;;;;;;;0.00;0.00;;;;;14.33;74.42;98886.00;4956647;28;45324;-75
2022/11/23 03:51:40;;;;;;;;;0.00;0.00;;;;;14.36;73.56;98857.06;4956616;28;45455;-76
2022/11/23 03:54:06;;;;;;;;;0.00;0.00;;;;;14.37;74.32;98884.22;4956894;28;45462;-76
2022/11/23 03:56:32;;;;;;;;;0.00;0.00;;;;;14.47;73.60;98901.59;4956554;28;45529;-76
2022/11/23 03:58:57;;;;;;;;;0.00;0.00;;;;;14.55;73.60;98893.63;4956761;28;45425;-75
2022/11/23 04:01:23;;;;;;;;;0.00;0.00;;;;;14.56;73.51;98900.59;4956573;28;45476;-74
2022/11/23 04:03:48;;;;;;;;;0.00;0.00;;;;;14.38;73.32;98863.16;4956729;28;45767;-74
2022/11/23 04:06:14;;;;;;;;;0.00;0.00;;;;;14.64;73.83;98893.53;4956405;28;46153;-74
2022/11/23 04:08:39;;;;;;;;;0.00;0.00;;;;;14.60;74.22;98903.19;4956449;28;45556;-74
2022/11/23 04:11:05;;;;;;;;;0.00;0.00;;;;;14.61;73.94;98904.97;4956441;28;45401;-75
2022/11/23 04:13:30;;;;;;;;;0.00;0.00;;;;;14.63;74.48;98887.41;4956727;28;45760;-75
2022/11/23 04:15:56;;;;;;;;;0.00;0.00;;;;;14.43;74.57;98869.25;4956155;28;45650;-75
2022/11/23 04:18:21;;;;;;;;;0.00;0.00;;;;;14.40;74.67;98852.63;4956269;28;45355;-75
2022/11/23 04:20:47;;;;;;;;;0.00;0.00;;;;;14.69;74.57;98892.56;4956215;28;45370;-74
2022/11/23 04:23:12;;;;;;;;;0.00;0.00;;;;;14.73;74.43;98895.19;4956642;28;45485;-74
2022/11/23 04:25:38;;;;;;;;;0.00;0.00;;;;;14.68;74.66;98903.09;4956211;28;46095;-75
2022/11/23 04:28:03;;;;;;;;;0.00;0.00;;;;;14.70;74.67;98898.69;4956237;28;45300;-74
2022/11/23 04:30:29;;;;;;;;;0.00;0.00;;;;;14.71;74.69;98888.16;4956493;28;45506;-76
2022/11/23 04:32:54;;;;;;;;;0.00;0.00;;;;;14.65;75.10;98885.63;4956513;28;45284;-75
2022/11/23 04:35:21;;;;;;;;;0.00;0.00;;;;;14.70;75.02;98896.06;4955980;28;46015;-76
2022/11/23 04:37:46;;;;;;;;;0.00;0.00;;;;;14.71;75.40;98908.34;4956031;28;45540;-75
2022/11/23 04:40:12;;;;;;;;;0.00;0.00;;;;;14.57;75.17;98884.88;4956297;28;45497;-75
2022/11/23 04:42:38;;;;;;;;;0.00;0.00;;;;;14.73;75.69;98924.09;4956368;28;45257;-76
2022/11/23 04:45:04;;;;;;;;;0.00;0.00;;;;;14.74;75.49;98926.69;4955701;28;46089;-76
2022/11/23 04:47:29;;;;;;;;;0.00;0.00;;;;;14.75;76.02;98952.09;4956322;28;45354;-75
2022/11/23 04:49:55;;;;;;;;;0.00;0.00;;;;;14.50;76.02;98939.22;4956111;28;45330;-77
2022/11/23 04:52:20;;;;;;;;;0.00;0.00;;;;;14.74;77.31;98995.03;4956037;28;45316;-76
2022/11/23 04:54:46;;;;;;;;;0.00;0.00;;;;;14.64;76.97;98982.88;4954358;28;45306;-75
2022/11/23 04:57:11;;;;;;;;;0.00;0.00;;;;;14.76;77.05;99016.03;4953688;28;45515;-76
2022/11/23 04:59:37;;;;;;;;;0.00;0.00;;;;;14.58;77.92;98977.69;4955846;28;45353;-76
2022/11/23 05:02:02;;;;;;;;;0.00;0.00;;;;;14.78;77.82;99015.16;4956485;28;45256;-76
2022/11/23 05:04:28;;;;;;;;;12.67;12.00;;;;;14.83;77.97;99000.19;4955474;28;45480;-75
2022/11/23 05:06:53;;;;;;;;;9.33;9.33;;;;;14.84;78.19;99019.44;4955812;28;45905;-75
2022/11/23 05:09:19;;;;;;;;;14.33;13.67;;;;;14.57;78.31;98983.84;4955524;28;45315;-75
2022/11/23 05:11:45;;;;;;;;;11.00;10.00;;;;;14.69;78.92;99004.75;4955581;28;45329;-74
2022/11/23 05:14:10;;;;;;;;;12.67;11.67;;;;;14.79;78.80;99022.13;4955412;28;45994;-75
2022/11/23 05:16:36;;;;;;;;;6.00;5.00;;;;;14.77;78.80;99021.28;4955515;28;45551;-74
2022/11/23 05:19:01;;;;;;;;;6.33;5.00;;;;;14.80;78.92;99034.41;4955744;28;45445;-74
2022/11/23 05:21:27;;;;;;;;;3.67;3.67;;;;;14.63;78.76;99017.94;4955549;28;45517;-76
2022/11/23 05:23:53;;;;;;;;;4.33;3.67;;;;;14.76;79.35;99042.31;4955310;28;46394;-76
2022/11/23 05:26:18;;;;;;;;;6.00;6.00;;;;;14.79;79.46;99048.44;4955029;28;45323;-75
2022/11/23 05:28:44;;;;;;;;;3.00;2.00;;;;;14.78;79.88;99062.47;4955194;28;45523;-75
2022/11/23 05:31:10;;;;;;;;;4.67;4.33;;;;;14.80;80.13;99081.72;4955349;28;45524;-75
2022/11/23 05:33:36;;;;;;;;;1.00;1.00;;;;;14.50;80.22;99043.44;4955214;28;45501;-75
2022/11/23 05:36:01;;;;;;;;;3.33;2.33;;;;;14.83;80.71;99099.22;4955456;28;45483;-75
2022/11/23 05:38:27;;;;;;;;;0.00;0.00;;;;;14.87;81.45;99111.44;4955321;28;45326;-75
2022/11/23 05:40:52;;;;;;;;;0.00;0.00;;;;;14.87;82.00;99125.44;4955647;28;45487;-75
2022/11/23 05:43:18;;;;;;;;;6.00;3.00;;;;;14.88;81.35;99132.47;4954961;28;45297;-74
2022/11/23 05:45:43;;;;;;;;;3.00;2.33;;;;;14.97;81.66;99138.50;4954929;28;45425;-76
2022/11/23 05:48:09;;;;;;;;;0.00;0.00;;;;;14.98;82.03;99134.97;4955181;28;45504;-75
2022/11/23 05:50:35;;;;;;;;;2.00;1.00;;;;;14.95;81.93;99135.03;4955473;28;45538;-77
2022/11/23 05:53:01;;;;;;;;;1.00;1.00;;;;;15.10;82.03;99169.06;4955009;28;45626;-75
2022/11/23 05:55:27;;;;;;;;;0.00;0.00;;;;;15.14;81.89;99167.25;4954951;28;45462;-75
2022/11/23 05:57:53;;;;;;;;;0.00;0.00;;;;;15.01;82.07;99164.75;4954911;28;45426;-75
2022/11/23 06:00:19;;;;;;;;;0.00;0.00;;;;;14.92;82.10;99143.81;4953927;28;45688;-76
2022/11/23 06:02:44;;;;;;;;;0.00;0.00;;;;;15.27;82.72;99189.91;4954615;28;46192;-76
2022/11/23 06:05:10;;;;;;;;;0.00;0.00;;;;;15.04;83.14;99169.09;4954061;28;45964;-76
2022/11/23 06:07:36;;;;;;;;;0.00;0.00;;;;;14.86;83.32;99139.50;4953100;28;45345;-76
2022/11/23 06:10:03;;;;;;;;;0.00;0.00;;;;;15.33;83.71;99216.16;4956145;28;45505;-75
2022/11/23 06:12:29;;;;;;;;;0.00;0.00;;;;;15.37;83.07;99243.31;4955675;28;47564;-76
2022/11/23 06:14:54;;;;;;;;;0.00;0.00;;;;;15.35;83.28;99230.16;4953190;28;45598;-76
2022/11/23 06:17:20;;;;;;;;;0.00;0.00;;;;;15.26;83.05;99239.03;4955990;28;45496;-76
2022/11/23 06:19:46;;;;;;;;;5.00;4.00;;;;;15.44;83.44;99260.78;4955984;28;45342;-76
2022/11/23 06:22:12;;;;;;;;;0.00;0.00;;;;;15.45;83.70;99267.78;4955652;28;46212;-76
2022/11/23 06:24:38;;;;;;;;;10.67;10.67;;;;;15.29;83.70;99240.75;4955927;28;45449;-77
2022/11/23 06:27:03;;;;;;;;;0.00;0.00;;;;;15.45;83.78;99267.78;4956098;28;45297;-76
2022/11/23 06:29:29;;;;;;;;;0.00;0.00;;;;;15.27;82.62;99261.81;4956077;28;45317;-75
2022/11/23 06:31:54;;;;;;;;;0.00;0.00;;;;;15.30;82.60;99256.53;4953399;28;45598;-76
2022/11/23 06:34:20;;;;;;;;;0.00;0.00;;;;;15.44;83.10;99280.09;4957364;28;45648;-75
2022/11/23 06:36:46;;;;;;;;;3.00;3.00;;;;;15.42;82.99;99278.31;4957175;28;45454;-77
2022/11/23 06:39:12;;;;;;;;;0.00;0.00;;;;;15.18;83.04;99232.97;4957628;28;45356;-77
2022/11/23 06:41:38;;;;;;;;;0.00;0.00;;;;;15.44;82.42;99289.75;4957607;28;46812;-75
2022/11/23 06:44:03;;;;;;;;;0.00;0.00;;;;;15.35;82.17;99268.78;4957685;28;45287;-75
2022/11/23 06:46:29;;;;;;;;;0.00;0.00;;;;;15.09;81.87;99244.44;4957463;28;45199;-75
2022/11/23 06:48:55;;;;;;;;;0.00;0.00;;;;;15.39;82.21;99299.44;4957762;28;45220;-77
2022/11/23 06:51:20;;;;;;;;;1.00;0.00;;;;;15.32;82.01;99282.84;4957261;28;45300;-73
2022/11/23 06:53:46;;;;;;;;;0.00;0.00;;;;;15.43;81.48;99299.38;4957163;28;45226;-74
2022/11/23 06:56:11;;;;;;;;;0.00;0.00;;;;;15.20;80.99;99256.63;4957218;28;45168;-75
2022/11/23 06:58:37;;;;;;;;;0.00;0.00;;;;;15.43;81.08;99301.13;4957800;28;45425;-75
2022/11/23 07:01:05;;;;;;;;;0.00;0.00;;;;;15.35;81.13;99289.81;4957236;28;45507;-75
2022/11/23 07:03:31;;;;;;;;;0.00;0.00;;;;;15.45;81.22;99304.63;4957170;28;45450;-75
2022/11/23 07:05:56;;;;;;;;;1.00;1.00;;;;;15.36;81.26;99292.44;4957057;28;45488;-75
2022/11/23 07:08:22;;;;;;;;;19.33;19.00;;;;;15.23;81.53;99268.00;4957013;28;45410;-75
2022/11/23 07:10:48;;;;;;;;;11.00;11.00;;;;;15.42;81.50;99292.38;4956879;28;45450;-75
2022/11/23 07:13:13;;;;;;;;;6.33;6.00;;;;;15.45;81.68;99299.38;4957071;28;45412;-75
2022/11/23 07:15:40;;;;;;;;;16.00;16.00;;;;;15.44;81.82;99295.88;4957045;28;45366;-77
2022/11/23 07:18:07;;;;;;;;;12.00;12.00;;;;;15.44;81.74;99297.63;4957563;28;45449;-76
2022/11/23 07:20:33;;;;;;;;;19.50;18.50;;;;;15.48;81.65;99281.78;4958753;28;45251;-75
2022/11/23 07:23:05;;;;;;;;;24.25;23.00;;;;;15.35;81.94;99242.47;4956757;28;45531;-76
2022/11/23 07:25:32;;;;;;;;;10.00;9.33;;;;;15.39;82.08;99278.38;4956689;28;45580;-76
2022/11/23 07:27:59;;;;;;;;;11.00;9.00;;;;;15.48;82.02;99294.09;4956805;28;45571;-75
2022/11/23 07:30:26;;;;;;;;;24.75;24.25;;;;;15.49;81.85;99287.91;4956294;28;45434;-76
2022/11/23 07:32:52;;;;;;;;;6.00;5.00;;;;;15.51;81.74;99294.91;4956528;28;45357;-74
2022/11/23 07:35:19;;;;;;;;;3.00;3.00;;;;;15.55;81.90;99289.63;4956780;28;45495;-74
2022/11/23 07:37:45;;;;;;;;;14.00;13.75;;;;;15.34;82.15;99260.00;4956890;28;45370;-74
2022/11/23 07:40:11;;;;;;;;;3.33;3.33;;;;;15.40;82.11;99277.47;4956871;28;45263;-73
2022/11/23 07:42:36;;;;;;;;;4.00;3.33;;;;;15.52;82.25;99314.22;4955074;28;45345;-74
2022/11/23 07:45:04;;;;;;;;;6.00;4.00;;;;;15.35;81.60;99321.41;4954931;28;45348;-75
2022/11/23 07:47:30;;;;;;;;;0.00;0.00;;;;;15.40;83.02;99361.69;4955260;28;45507;-75
2022/11/23 07:49:55;;;;;;;;;1.00;0.00;;;;;15.43;82.40;99401.16;4954602;28;45839;-75
2022/11/23 07:52:21;;;;;;;;;0.33;0.33;;;;;15.41;83.28;99429.22;4954623;28;46099;-74
2022/11/23 07:54:46;;;;;;;;;0.00;0.00;;;;;15.35;81.25;99429.28;4954964;28;45560;-74
2022/11/23 07:57:12;;;;;;;;;0.67;0.00;;;;;15.36;80.48;99467.84;4955311;28;45476;-74
2022/11/23 07:59:38;;;;;;;;;0.00;0.00;;;;;15.32;79.30;99469.66;4954888;28;45963;-73
2022/11/23 08:02:04;;;;;;;;;1.33;0.00;;;;;15.18;79.25;99476.72;4954567;28;45580;-77
2022/11/23 08:04:29;;;;;;;;;0.00;0.00;;;;;15.25;79.60;99496.88;4955011;28;45772;-74
2022/11/23 08:06:55;;;;;;;;;2.00;1.00;;;;;15.14;79.23;99483.78;4955047;28;45356;-76
2022/11/23 08:09:21;;;;;;;;;0.67;0.67;;;;;15.05;78.33;99468.91;4953026;28;45406;-75
2022/11/23 08:11:46;;;;;;;;;1.00;1.00;;;;;15.28;77.91;99510.03;4955755;28;45496;-75
2022/11/23 08:14:12;;;;;;;;;1.00;1.00;;;;;15.32;76.25;99524.91;4955817;28;45603;-75
2022/11/23 08:16:38;;;;;;;;;2.00;1.00;;;;;14.94;75.74;99438.31;4956069;28;45627;-74
2022/11/23 08:19:03;;;;;;;;;2.67;1.33;;;;;15.32;76.23;99493.34;4954055;28;46589;-79
2022/11/23 08:21:29;;;;;;;;;8.67;5.67;;;;;15.39;76.36;99510.81;4955825;28;45910;-73
2022/11/23 08:23:54;;;;;;;;;8.33;6.67;;;;;15.37;76.34;99532.78;4956093;28;45349;-73
2022/11/23 08:26:20;;;;;;;;;6.00;4.33;;;;;15.36;76.70;99523.09;4956430;28;45479;-73
2022/11/23 08:28:47;;;;;;;;;6.33;3.00;;;;;15.34;76.57;99544.19;4955919;28;45420;-78
2022/11/23 08:31:13;;;;;;;;;11.33;9.67;;;;;15.25;76.77;99544.22;4955561;28;45319;-74
2022/11/23 08:33:40;;;;;;;;;10.00;7.67;;;;;15.37;76.93;99575.75;4956466;28;45446;-73
2022/11/23 08:36:06;;;;;;;;;8.00;7.67;;;;;15.34;76.96;99582.78;4956270;28;45548;-74
2022/11/23 08:38:33;;;;;;;;;7.00;6.00;;;;;15.26;77.21;99583.69;4955758;28;47284;-73
2022/11/23 08:41:02;;;;;;;;;12.00;10.00;;;;;15.34;77.03;99594.19;4955832;28;45548;-73
2022/11/23 08:43:28;;;;;;;;;8.67;5.00;;;;;15.20;77.09;99602.16;4956257;28;45794;-73
2022/11/23 08:45:55;;;;;;;;;6.00;4.67;;;;;15.06;77.08;99564.47;4956126;28;45349;-75
2022/11/23 08:48:21;;;;;;;;;7.33;4.33;;;;;15.31;76.83;99618.75;4955876;28;45457;-73
2022/11/23 08:50:47;;;;;;;;;6.00;4.00;;;;;15.14;76.84;99604.81;4955760;28;45574;-73
2022/11/23 08:53:12;;;;;;;;;6.00;3.67;;;;;15.28;77.00;99631.06;4955009;28;45488;-78
2022/11/23 08:55:38;;;;;;;;;11.33;5.33;;;;;15.30;77.00;99635.44;4956015;28;45481;-78
2022/11/23 08:58:03;;;;;;;;;8.33;4.33;;;;;15.32;76.81;99646.81;4955721;28;45487;-77
2022/11/23 09:00:29;;;;;;;;;7.00;5.00;;;;;15.34;76.67;99657.34;4956162;28;45411;-79
2022/11/23 09:02:58;;;;;;;;;6.67;4.00;;;;;15.39;76.19;99652.94;4956268;28;45489;-79
2022/11/23 09:05:25;;;;;;;;;7.00;5.00;;;;;15.44;75.90;99660.81;4956111;28;45532;-76
2022/11/23 09:07:51;;;;;;;;;7.00;4.00;;;;;15.42;75.49;99668.72;4956116;28;45548;-75
2022/11/23 09:10:16;;;;;;;;;6.67;5.00;;;;;15.48;75.41;99702.03;4956883;28;45311;-73
2022/11/23 09:12:42;;;;;;;;;11.33;7.33;;;;;15.42;74.74;99680.97;4955932;28;45325;-72
2022/11/23 09:15:09;;;;;;;;;7.33;5.67;;;;;15.23;74.30;99641.59;4956218;28;45488;-79
2022/11/23 09:17:35;;;;;;;;;5.00;4.00;;;;;15.53;74.34;99700.25;4955624;28;45527;-75
2022/11/23 09:20:01;;;;;;;;;5.00;2.67;;;;;15.43;74.01;99673.09;4956849;28;45506;-79
2022/11/23 09:22:27;;;;;;;;;5.67;4.00;;;;;15.55;73.41;99698.47;4955721;28;45513;-75
2022/11/23 09:24:52;;;;;;;;;3.00;2.00;;;;;15.58;73.42;99701.13;4957047;28;45346;-76
2022/11/23 09:27:19;;;;;;;;;5.33;3.00;;;;;15.64;72.25;99716.88;4956118;28;45251;-77
2022/11/23 09:29:44;;;;;;;;;9.00;3.67;;;;;15.66;71.72;99715.13;4956291;28;45283;-78
2022/11/23 09:32:10;;;;;;;;;6.67;5.67;;;;;15.66;72.11;99709.84;4956543;28;45469;-74
2022/11/23 09:34:36;;;;;;;;;6.00;4.00;;;;;15.68;71.31;99728.28;4957408;28;45454;-75
2022/11/23 09:37:02;;;;;;;;;9.00;6.00;;;;;15.71;71.00;99723.88;4956212;28;46051;-78
2022/11/23 09:39:27;;;;;;;;;7.33;4.00;;;;;15.72;71.08;99730.03;4955362;28;45501;-75
2022/11/23 09:42:12;;;;;;;;;6.00;4.00;;;;;15.81;70.50;99744.94;4954929;28;45315;-77
2022/11/23 09:45:03;;;;;;;;;5.33;3.00;;;;;15.81;69.99;99747.56;4958315;28;45215;-75
2022/11/23 09:48:06;;;;;;;;;11.00;8.00;;;;;15.65;70.16;99723.88;4930070;28;47156;-74
2022/11/23 09:50:48;;;;;;;;;5.00;3.67;;;;;15.81;68.91;99755.47;4958061;28;45425;-75
2022/11/23 09:53:27;;;;;;;;;9.00;6.67;;;;;15.80;68.47;99764.25;4956967;28;45339;-74
2022/11/23 09:55:56;;;;;;;;;7.00;3.00;;;;;15.80;67.72;99774.81;4958247;28;45520;-79
2022/11/23 09:58:27;;;;;;;;;6.00;3.67;;;;;15.78;67.84;99779.19;4958350;28;46159;-74
2022/11/23 10:01:02;;;;;;;;;5.67;3.00;;;;;15.80;67.61;99774.81;4957628;28;45306;-76
2022/11/23 10:03:31;;;;;;;;;5.33;3.67;;;;;15.70;67.67;99771.28;4956967;28;45346;-75
2022/11/23 10:06:16;;;;;;;;;8.67;4.00;;;;;15.88;67.90;99804.63;4958148;28;45555;-78
2022/11/23 10:09:17;;;;;;;;;7.00;5.00;;;;;15.83;67.88;99786.16;4957664;28;45571;-74
2022/11/23 10:12:08;;;;;;;;;7.67;4.00;;;;;15.97;66.88;99796.66;4957340;28;45250;-75
2022/11/23 10:15:01;;;;;;;;;6.33;4.00;;;;;16.08;66.79;99808.03;4957911;28;45563;-75
2022/11/23 10:17:51;;;;;;;;;6.00;3.00;;;;;16.16;66.07;99807.13;4957696;28;45312;-75
2022/11/23 10:20:37;;;;;;;;;11.00;10.00;;;;;16.20;66.46;99804.47;4957827;28;46296;-75
2022/11/23 10:23:16;;;;;;;;;5.00;2.00;;;;;16.23;65.48;99814.97;4956458;28;45502;-74
2022/11/23 10:25:50;;;;;;;;;6.33;3.00;;;;;16.30;65.37;99815.84;4957592;28;45272;-75
2022/11/23 10:28:19;;;;;;;;;13.33;13.00;;;;;16.37;64.82;99817.53;4956718;28;45481;-78
2022/11/23 10:30:55;;;;;;;;;7.00;4.00;;;;;16.23;64.74;99800.94;4957431;28;45349;-75
2022/11/23 10:33:40;;;;;;;;;6.67;5.00;;;;;16.37;63.32;99825.44;4957217;28;45286;-75
2022/11/23 10:36:09;;;;;;;;;9.33;7.67;;;;;16.19;64.45;99804.47;4958436;28;45310;-75
2022/11/23 10:38:35;;;;;;;;;5.33;4.00;;;;;16.26;64.61;99832.56;4957386;28;45192;-75
2022/11/23 10:41:15;;;;;;;;;8.67;4.00;;;;;16.21;64.85;99851.00;4957280;28;45352;-79
2022/11/23 10:44:21;;;;;;;;;5.00;4.33;;;;;16.28;65.36;99825.53;4957468;28;45407;-75
2022/11/23 10:46:47;;;;;;;;;9.33;4.00;;;;;16.34;65.18;99825.50;4957814;28;45526;-75
2022/11/23 10:49:22;;;;;;;;;12.00;10.00;;;;;16.27;64.27;99839.56;4957600;28;45482;-77
2022/11/23 10:52:02;;;;;;;;;6.00;5.00;;;;;16.23;65.82;99861.53;4957552;28;46322;-75
2022/11/23 10:54:55;;;;;;;;;6.00;5.00;;;;;16.03;66.29;99851.09;4956334;28;45402;-78
2022/11/23 10:57:26;;;;;;;;;7.00;6.00;;;;;16.05;66.91;99860.72;4957560;28;45496;-75
2022/11/23 11:00:09;;;;;;;;;6.67;3.00;;;;;15.97;66.66;99862.50;4957286;28;45472;-76
2022/11/23 11:02:55;;;;;;;;;4.67;3.67;;;;;15.82;67.10;99875.75;4957072;28;45449;-75
2022/11/23 11:05:35;;;;;;;;;7.00;2.33;;;;;15.68;66.78;99852.91;4957525;28;45592;-76
2022/11/23 11:08:13;;;;;;;;;5.00;2.67;;;;;15.74;67.34;99859.06;4957137;28;45385;-77
2022/11/23 11:10:41;;;;;;;;;6.00;4.00;;;;;15.84;67.92;99871.34;4957276;28;45554;-74
2022/11/23 11:13:29;;;;;;;;;6.33;3.67;;;;;15.85;68.13;99876.59;4957575;28;46296;-73
2022/11/23 11:16:04;;;;;;;;;4.00;3.00;;;;;15.88;68.29;99873.09;4957782;28;45591;-77
2022/11/23 11:18:33;;;;;;;;;7.33;6.67;;;;;15.86;68.65;99877.50;4958579;28;45567;-77
2022/11/23 11:21:06;;;;;;;;;13.00;11.00;;;;;15.77;69.64;99882.75;4958351;28;45451;-76
2022/11/23 11:23:38;;;;;;;;;11.67;9.00;;;;;15.74;69.28;99877.50;4958057;28;45260;-73
2022/11/23 11:26:08;;;;;;;;;8.33;6.33;;;;;15.78;69.43;99887.16;4958419;28;45263;-77
2022/11/23 11:28:41;;;;;;;;;7.00;5.00;;;;;15.77;69.55;99901.19;4958507;28;45405;-74
2022/11/23 11:31:24;;;;;;;;;7.00;5.33;;;;;15.69;70.22;99912.56;4957745;28;45415;-78
2022/11/23 11:33:58;;;;;;;;;6.00;5.00;;;;;15.67;70.35;99909.06;4957435;28;46102;-76
2022/11/23 11:36:29;;;;;;;;;7.67;3.33;;;;;15.48;70.63;99886.28;4957193;28;45500;-76
2022/11/23 11:38:57;;;;;;;;;5.00;2.00;;;;;15.53;71.08;99926.63;4957564;28;45453;-77